Flight Track Log - Related Links

Times and Time Zones

All times are in EDT time to prevent confusion due to time zone crossing. See the EJA658 flight status page for this flight to view local times or setup timezone preferences in your user account.

Time Position Orientation Groundspeed Altitude Reporting Facility
EDT Latitude Longitude Course Direction KTS MPH feet Rate Location/Type
Fri 04:06:50 PM 40.7333 -74.4333 264° West 220 253 2,800  Level New York TRACON
Fri 04:07:50 PM 40.6833 -74.4500 194° South 224 258 4,000 600 Climbing New York TRACON
Fri 04:08:50 PM 40.6167 -74.4667 191° South 223 257 4,000  Level New York TRACON
Fri 04:09:50 PM 40.5833 -74.5000 217° Southwest 210 242 4,000  Level New York TRACON
Fri 04:10:50 PM 40.5667 -74.5833 255° West 210 242 4,000 50 Level New York TRACON
Fri 04:11:50 PM 40.5667 -74.6667 270° West 236 272 4,100  Climbing New York TRACON
Fri 04:12:00 PM 40.5614 -74.8019 264° West  Level FlightAware Approximate
Fri 04:12:50 PM 40.5667 -74.7500 270° West 242 278 4,000  Level New York TRACON
Fri 04:14:00 PM 40.5585 -74.8484 264° West  Level FlightAware Approximate
Fri 04:17:47 PM 40.5333 -75.1833 187° South 244 281 6,900  Level Philadelphia TRACON
Fri 04:19:12 PM 40.5000 -75.3000 249° West 245 282 7,000 40 Climbing Philadelphia TRACON
Fri 04:20:17 PM 40.4500 -75.3500 217° Southwest 246 283 7,000  Level Philadelphia TRACON
Fri 04:21:00 PM 40.5058 -75.4380 263° West  Level FlightAware Approximate
Fri 04:21:18 PM 40.4000 -75.4167 225° Southwest 246 283 7,000  Level Philadelphia TRACON
Fri 04:22:00 PM 40.4832 -75.5028 187° South  Level FlightAware Approximate
Fri 04:22:17 PM 40.3500 -75.4667 217° Southwest 245 282 7,000  Level Philadelphia TRACON
Fri 04:23:00 PM 40.4192 -75.5135 187° South  Level FlightAware Approximate
Fri 04:23:12 PM 40.3000 -75.5167 217° Southwest 243 280 6,600  Level Philadelphia TRACON
Fri 04:24:17 PM 40.2333 -75.5833 217° Southwest 255 293 4,500 -1,619 Descending Philadelphia TRACON
Fri 04:25:18 PM 40.1833 -75.6333 217° Southwest 226 260 3,200 -992 Descending Philadelphia TRACON
Fri 04:26:24 PM 40.1333 -75.7000 226° Southwest 224 258 2,400 -474 Descending Philadelphia TRACON
Fri 04:27:12 PM 40.1000 -75.7333 217° Southwest 195 224 2,300 -167 Descending Philadelphia TRACON
Fri 04:28:12 PM 40.0500 -75.7833 217° Southwest 196 226 2,100 -200 Descending Philadelphia TRACON

Login

Don't have an account? Register now (free) for customized features, flight alerts, and more!